Creek Data

    Home     View Charts     View Raw Data     Messages

ID Distance Battery Voltage Battery Current Internal Temp Internal Humidity External Temp Solar Input rssi snr Time Stamp Record
35367 15.1 4.03 -5 46 41 48 0 -77 7 03/18/2025 09:00 PM 17129
35366 15.1 3.98 -5 46 42 49 0 -77 8 03/18/2025 08:45 PM 17128
35365 15.1 3.98 -5 47 42 48 0 -78 8 03/18/2025 08:30 PM 17127
35364 15.1 3.98 -5 48 43 52 0 -78 7 03/18/2025 08:15 PM 17126
35363 15.0 3.98 -5 48 44 51 0.1 -78 8 03/18/2025 08:00 PM 17125
35362 15.1 3.98 -5 50 45 52 0.1 -78 8 03/18/2025 07:45 PM 17124
35361 15.1 4.04 -5 51 46 53 0.3 -78 7 03/18/2025 07:30 PM 17123
35360 15.1 3.98 -8 55 45 54 3.3 -78 8 03/18/2025 07:15 PM 17122
35359 15.0 4.00 0 58 45 56 4.5 -78 8 03/18/2025 07:00 PM 17121
35358 15.0 4.02 10 61 44 58 4.5 -78 7 03/18/2025 06:45 PM 17120
35357 15.1 4.10 5 63 44 57 4.5 -78 8 03/18/2025 06:30 PM 17119
35356 15.1 4.07 35 67 43 59 4.5 -79 7 03/18/2025 06:15 PM 17118
35355 15.5 4.03 0 69 42 60 5.1 -78 8 03/18/2025 06:00 PM 17117
35354 15.3 4.14 0 71 40 62 5.1 -78 8 03/18/2025 05:45 PM 17116
35353 15.3 4.05 5 71 40 62 5.1 -78 8 03/18/2025 05:30 PM 17115
35352 15.3 4.13 0 71 40 62 5.1 -75 8 03/18/2025 05:15 PM 17114
35351 15.2 4.03 0 70 40 60 5.1 -77 8 03/18/2025 05:00 PM 17113
35350 15.2 4.03 0 71 39 61 5.1 -76 8 03/18/2025 04:45 PM 17112
35349 15.2 4.03 5 72 38 62 5.1 -77 8 03/18/2025 04:30 PM 17111
35348 15.2 4.03 0 71 38 61 5.1 -75 8 03/18/2025 04:15 PM 17110
35347 15.2 4.03 0 71 38 61 5.1 -77 7 03/18/2025 04:00 PM 17109
35346 15.2 4.03 0 71 37 60 5.1 -77 8 03/18/2025 03:45 PM 17108
35345 15.3 4.03 5 71 36 60 5.1 -75 9 03/18/2025 03:30 PM 17107
35344 15.3 4.04 5 70 36 60 5.1 -75 8 03/18/2025 03:15 PM 17106
35343 15.2 4.03 0 70 36 58 5.1 -76 8 03/18/2025 03:00 PM 17105